sensor_id;sensor_type;location;lat;lon;timestamp;P1;durP1;ratioP1;P2;durP2;ratioP2
48875;SDS011;34689;51.644;5.618;2022-11-27T00:00:56;5.45;;;1.30;;
48875;SDS011;34689;51.644;5.618;2022-11-27T00:03:21;3.55;;;1.45;;
48875;SDS011;34689;51.644;5.618;2022-11-27T00:05:52;3.28;;;1.50;;
48875;SDS011;34689;51.644;5.618;2022-11-27T00:08:22;2.10;;;1.30;;
48875;SDS011;34689;51.644;5.618;2022-11-27T00:10:49;4.90;;;1.70;;
48875;SDS011;34689;51.644;5.618;2022-11-27T00:13:14;7.35;;;2.15;;
48875;SDS011;34689;51.644;5.618;2022-11-27T00:15:40;6.85;;;1.77;;
48875;SDS011;34689;51.644;5.618;2022-11-27T00:18:06;3.83;;;1.42;;
48875;SDS011;34689;51.644;5.618;2022-11-27T00:20:32;8.57;;;2.33;;
48875;SDS011;34689;51.644;5.618;2022-11-27T00:22:58;5.28;;;2.40;;
48875;SDS011;34689;51.644;5.618;2022-11-27T00:25:24;8.45;;;2.05;;
48875;SDS011;34689;51.644;5.618;2022-11-27T00:27:49;6.80;;;2.30;;
48875;SDS011;34689;51.644;5.618;2022-11-27T00:30:15;9.02;;;2.28;;
48875;SDS011;34689;51.644;5.618;2022-11-27T00:32:41;5.38;;;1.52;;
48875;SDS011;34689;51.644;5.618;2022-11-27T00:35:06;5.18;;;2.10;;
48875;SDS011;34689;51.644;5.618;2022-11-27T00:37:32;6.40;;;2.78;;
48875;SDS011;34689;51.644;5.618;2022-11-27T00:39:58;8.68;;;1.85;;
48875;SDS011;34689;51.644;5.618;2022-11-27T00:42:24;9.60;;;2.08;;
48875;SDS011;34689;51.644;5.618;2022-11-27T00:44:50;4.13;;;1.58;;
48875;SDS011;34689;51.644;5.618;2022-11-27T00:47:15;3.30;;;1.55;;
48875;SDS011;34689;51.644;5.618;2022-11-27T00:49:41;4.22;;;2.20;;
48875;SDS011;34689;51.644;5.618;2022-11-27T00:52:07;5.60;;;1.38;;
48875;SDS011;34689;51.644;5.618;2022-11-27T00:54:32;8.50;;;2.63;;
48875;SDS011;34689;51.644;5.618;2022-11-27T00:56:58;5.47;;;2.45;;
48875;SDS011;34689;51.644;5.618;2022-11-27T00:59:24;5.72;;;1.73;;
48875;SDS011;34689;51.644;5.618;2022-11-27T01:01:49;7.57;;;2.33;;
48875;SDS011;34689;51.644;5.618;2022-11-27T01:04:15;6.10;;;2.42;;
48875;SDS011;34689;51.644;5.618;2022-11-27T01:06:42;3.72;;;1.70;;
48875;SDS011;34689;51.644;5.618;2022-11-27T01:09:09;6.45;;;2.20;;
48875;SDS011;34689;51.644;5.618;2022-11-27T01:11:36;6.47;;;1.85;;
48875;SDS011;34689;51.644;5.618;2022-11-27T01:14:07;6.78;;;2.10;;
48875;SDS011;34689;51.644;5.618;2022-11-27T01:16:35;6.45;;;1.92;;
48875;SDS011;34689;51.644;5.618;2022-11-27T01:19:02;7.63;;;2.03;;
48875;SDS011;34689;51.644;5.618;2022-11-27T01:21:29;8.90;;;2.50;;
48875;SDS011;34689;51.644;5.618;2022-11-27T01:23:57;5.70;;;1.95;;
48875;SDS011;34689;51.644;5.618;2022-11-27T01:26:23;5.97;;;1.88;;
48875;SDS011;34689;51.644;5.618;2022-11-27T01:28:51;8.95;;;2.90;;
48875;SDS011;34689;51.644;5.618;2022-11-27T01:31:19;4.30;;;1.98;;
48875;SDS011;34689;51.644;5.618;2022-11-27T01:33:53;4.18;;;2.20;;
48875;SDS011;34689;51.644;5.618;2022-11-27T01:36:21;6.63;;;2.78;;
48875;SDS011;34689;51.644;5.618;2022-11-27T01:38:47;6.43;;;2.53;;
48875;SDS011;34689;51.644;5.618;2022-11-27T01:41:18;5.57;;;2.55;;
48875;SDS011;34689;51.644;5.618;2022-11-27T01:43:54;5.90;;;2.15;;
48875;SDS011;34689;51.644;5.618;2022-11-27T01:51:40;4.20;;;1.90;;
48875;SDS011;34689;51.644;5.618;2022-11-27T01:54:07;8.63;;;3.10;;
48875;SDS011;34689;51.644;5.618;2022-11-27T01:56:33;3.70;;;2.17;;
48875;SDS011;34689;51.644;5.618;2022-11-27T01:58:59;12.80;;;4.43;;
48875;SDS011;34689;51.644;5.618;2022-11-27T02:01:26;5.82;;;2.40;;
48875;SDS011;34689;51.644;5.618;2022-11-27T02:03:52;8.02;;;3.00;;
48875;SDS011;34689;51.644;5.618;2022-11-27T02:06:21;13.70;;;3.47;;
48875;SDS011;34689;51.644;5.618;2022-11-27T02:08:47;7.50;;;2.33;;
48875;SDS011;34689;51.644;5.618;2022-11-27T02:19:48;3.70;;;2.20;;
48875;SDS011;34689;51.644;5.618;2022-11-27T02:31:11;4.75;;;2.70;;
48875;SDS011;34689;51.644;5.618;2022-11-27T02:33:44;10.80;;;3.63;;
48875;SDS011;34689;51.644;5.618;2022-11-27T02:36:14;9.38;;;3.60;;
48875;SDS011;34689;51.644;5.618;2022-11-27T02:38:50;10.48;;;3.58;;
48875;SDS011;34689;51.644;5.618;2022-11-27T02:41:20;6.75;;;2.50;;
48875;SDS011;34689;51.644;5.618;2022-11-27T02:43:50;4.38;;;2.03;;
48875;SDS011;34689;51.644;5.618;2022-11-27T02:46:18;6.32;;;2.55;;
48875;SDS011;34689;51.644;5.618;2022-11-27T02:48:47;8.57;;;2.30;;
48875;SDS011;34689;51.644;5.618;2022-11-27T02:51:19;4.13;;;2.08;;
48875;SDS011;34689;51.644;5.618;2022-11-27T02:53:52;9.63;;;2.63;;
48875;SDS011;34689;51.644;5.618;2022-11-27T02:56:22;5.72;;;2.00;;
48875;SDS011;34689;51.644;5.618;2022-11-27T02:58:51;4.80;;;2.47;;
48875;SDS011;34689;51.644;5.618;2022-11-27T03:01:21;8.57;;;2.40;;
48875;SDS011;34689;51.644;5.618;2022-11-27T03:03:50;4.32;;;1.88;;
48875;SDS011;34689;51.644;5.618;2022-11-27T03:06:21;3.13;;;1.88;;
48875;SDS011;34689;51.644;5.618;2022-11-27T03:11:31;4.85;;;1.92;;
48875;SDS011;34689;51.644;5.618;2022-11-27T03:13:58;3.47;;;1.65;;
48875;SDS011;34689;51.644;5.618;2022-11-27T03:21:37;5.75;;;1.55;;
48875;SDS011;34689;51.644;5.618;2022-11-27T03:24:08;4.60;;;1.77;;
48875;SDS011;34689;51.644;5.618;2022-11-27T03:26:35;4.25;;;1.38;;
48875;SDS011;34689;51.644;5.618;2022-11-27T03:29:03;3.65;;;1.23;;
48875;SDS011;34689;51.644;5.618;2022-11-27T03:31:33;9.50;;;1.92;;
48875;SDS011;34689;51.644;5.618;2022-11-27T03:33:59;2.20;;;1.27;;
48875;SDS011;34689;51.644;5.618;2022-11-27T03:36:26;2.63;;;1.50;;
48875;SDS011;34689;51.644;5.618;2022-11-27T03:38:51;7.22;;;1.90;;
48875;SDS011;34689;51.644;5.618;2022-11-27T03:44:06;7.38;;;1.92;;
48875;SDS011;34689;51.644;5.618;2022-11-27T03:55:00;2.65;;;1.27;;
48875;SDS011;34689;51.644;5.618;2022-11-27T03:57:35;6.88;;;2.05;;
48875;SDS011;34689;51.644;5.618;2022-11-27T04:00:07;2.72;;;1.33;;
48875;SDS011;34689;51.644;5.618;2022-11-27T04:02:42;4.90;;;1.45;;
48875;SDS011;34689;51.644;5.618;2022-11-27T04:05:11;3.70;;;1.33;;
48875;SDS011;34689;51.644;5.618;2022-11-27T04:07:38;4.45;;;1.33;;
48875;SDS011;34689;51.644;5.618;2022-11-27T04:10:04;5.43;;;1.77;;
48875;SDS011;34689;51.644;5.618;2022-11-27T04:12:31;3.10;;;1.50;;
48875;SDS011;34689;51.644;5.618;2022-11-27T04:14:56;3.88;;;1.00;;
48875;SDS011;34689;51.644;5.618;2022-11-27T04:17:22;6.78;;;1.55;;
48875;SDS011;34689;51.644;5.618;2022-11-27T04:19:48;2.83;;;1.33;;
48875;SDS011;34689;51.644;5.618;2022-11-27T04:22:13;3.03;;;1.02;;
48875;SDS011;34689;51.644;5.618;2022-11-27T04:24:39;2.55;;;0.93;;
48875;SDS011;34689;51.644;5.618;2022-11-27T04:27:05;4.35;;;1.13;;
48875;SDS011;34689;51.644;5.618;2022-11-27T04:29:30;5.07;;;1.08;;
48875;SDS011;34689;51.644;5.618;2022-11-27T04:31:56;2.85;;;1.02;;
48875;SDS011;34689;51.644;5.618;2022-11-27T04:34:21;4.18;;;1.77;;
48875;SDS011;34689;51.644;5.618;2022-11-27T04:36:47;5.63;;;1.08;;
48875;SDS011;34689;51.644;5.618;2022-11-27T04:39:13;4.88;;;1.83;;
48875;SDS011;34689;51.644;5.618;2022-11-27T04:41:39;4.78;;;1.25;;
48875;SDS011;34689;51.644;5.618;2022-11-27T04:44:04;4.88;;;1.50;;
48875;SDS011;34689;51.644;5.618;2022-11-27T04:46:30;3.17;;;1.58;;
48875;SDS011;34689;51.644;5.618;2022-11-27T04:48:56;3.40;;;1.02;;
48875;SDS011;34689;51.644;5.618;2022-11-27T04:51:22;2.67;;;1.45;;
48875;SDS011;34689;51.644;5.618;2022-11-27T04:53:48;3.08;;;1.05;;
48875;SDS011;34689;51.644;5.618;2022-11-27T04:56:13;6.15;;;1.35;;
48875;SDS011;34689;51.644;5.618;2022-11-27T04:58:39;2.33;;;1.00;;
48875;SDS011;34689;51.644;5.618;2022-11-27T05:01:06;2.72;;;0.90;;
48875;SDS011;34689;51.644;5.618;2022-11-27T05:03:33;5.00;;;1.30;;
48875;SDS011;34689;51.644;5.618;2022-11-27T05:05:58;7.00;;;1.48;;
48875;SDS011;34689;51.644;5.618;2022-11-27T05:08:24;4.47;;;1.27;;
48875;SDS011;34689;51.644;5.618;2022-11-27T05:10:58;5.05;;;0.98;;
48875;SDS011;34689;51.644;5.618;2022-11-27T05:13:28;3.90;;;1.17;;
48875;SDS011;34689;51.644;5.618;2022-11-27T05:15:54;1.90;;;0.63;;
48875;SDS011;34689;51.644;5.618;2022-11-27T05:18:19;2.45;;;1.10;;
48875;SDS011;34689;51.644;5.618;2022-11-27T05:20:45;4.82;;;1.00;;
48875;SDS011;34689;51.644;5.618;2022-11-27T05:23:11;6.78;;;2.10;;
48875;SDS011;34689;51.644;5.618;2022-11-27T05:25:36;5.47;;;1.38;;
48875;SDS011;34689;51.644;5.618;2022-11-27T05:28:02;2.42;;;1.00;;
48875;SDS011;34689;51.644;5.618;2022-11-27T05:30:29;2.58;;;1.10;;
48875;SDS011;34689;51.644;5.618;2022-11-27T05:32:55;0.95;;;0.60;;
48875;SDS011;34689;51.644;5.618;2022-11-27T05:35:20;2.22;;;0.88;;
48875;SDS011;34689;51.644;5.618;2022-11-27T05:37:46;3.53;;;1.15;;
48875;SDS011;34689;51.644;5.618;2022-11-27T05:40:12;1.83;;;0.80;;
48875;SDS011;34689;51.644;5.618;2022-11-27T05:42:38;7.10;;;2.00;;
48875;SDS011;34689;51.644;5.618;2022-11-27T05:45:03;2.45;;;1.45;;
48875;SDS011;34689;51.644;5.618;2022-11-27T05:47:29;5.07;;;0.98;;
48875;SDS011;34689;51.644;5.618;2022-11-27T05:49:55;3.95;;;1.10;;
48875;SDS011;34689;51.644;5.618;2022-11-27T05:52:21;7.90;;;1.77;;
48875;SDS011;34689;51.644;5.618;2022-11-27T05:54:46;3.28;;;1.23;;
48875;SDS011;34689;51.644;5.618;2022-11-27T05:57:12;4.93;;;1.35;;
48875;SDS011;34689;51.644;5.618;2022-11-27T05:59:37;2.33;;;1.17;;
48875;SDS011;34689;51.644;5.618;2022-11-27T06:02:03;2.28;;;1.30;;
48875;SDS011;34689;51.644;5.618;2022-11-27T06:04:31;7.97;;;1.48;;
48875;SDS011;34689;51.644;5.618;2022-11-27T06:07:00;2.95;;;1.48;;
48875;SDS011;34689;51.644;5.618;2022-11-27T06:09:25;2.38;;;1.15;;
48875;SDS011;34689;51.644;5.618;2022-11-27T06:11:51;4.00;;;1.38;;
48875;SDS011;34689;51.644;5.618;2022-11-27T06:14:17;1.95;;;1.02;;
48875;SDS011;34689;51.644;5.618;2022-11-27T06:16:42;7.45;;;1.73;;
48875;SDS011;34689;51.644;5.618;2022-11-27T06:19:08;4.00;;;1.25;;
48875;SDS011;34689;51.644;5.618;2022-11-27T06:21:33;4.22;;;1.27;;
48875;SDS011;34689;51.644;5.618;2022-11-27T06:23:59;5.10;;;1.67;;
48875;SDS011;34689;51.644;5.618;2022-11-27T06:26:26;5.57;;;1.23;;
48875;SDS011;34689;51.644;5.618;2022-11-27T06:28:54;3.63;;;1.00;;
48875;SDS011;34689;51.644;5.618;2022-11-27T06:31:21;4.10;;;1.55;;
48875;SDS011;34689;51.644;5.618;2022-11-27T06:33:50;4.25;;;1.45;;
48875;SDS011;34689;51.644;5.618;2022-11-27T06:36:17;1.80;;;0.90;;
48875;SDS011;34689;51.644;5.618;2022-11-27T06:38:44;2.08;;;1.05;;
48875;SDS011;34689;51.644;5.618;2022-11-27T06:41:16;4.15;;;1.05;;
48875;SDS011;34689;51.644;5.618;2022-11-27T06:43:44;2.28;;;1.42;;
48875;SDS011;34689;51.644;5.618;2022-11-27T06:46:16;2.08;;;1.40;;
48875;SDS011;34689;51.644;5.618;2022-11-27T06:48:43;2.80;;;1.27;;
48875;SDS011;34689;51.644;5.618;2022-11-27T06:51:11;3.40;;;1.30;;
48875;SDS011;34689;51.644;5.618;2022-11-27T06:53:39;4.88;;;2.10;;
48875;SDS011;34689;51.644;5.618;2022-11-27T06:56:06;5.60;;;1.58;;
48875;SDS011;34689;51.644;5.618;2022-11-27T06:58:34;3.17;;;1.48;;
48875;SDS011;34689;51.644;5.618;2022-11-27T07:01:01;1.80;;;1.20;;
48875;SDS011;34689;51.644;5.618;2022-11-27T07:03:29;3.10;;;1.02;;
48875;SDS011;34689;51.644;5.618;2022-11-27T07:05:57;3.95;;;1.23;;
48875;SDS011;34689;51.644;5.618;2022-11-27T07:08:24;3.15;;;1.63;;
48875;SDS011;34689;51.644;5.618;2022-11-27T07:10:50;6.25;;;2.08;;
48875;SDS011;34689;51.644;5.618;2022-11-27T07:13:15;3.28;;;1.70;;
48875;SDS011;34689;51.644;5.618;2022-11-27T07:15:41;4.32;;;1.70;;
48875;SDS011;34689;51.644;5.618;2022-11-27T07:18:07;3.83;;;1.45;;
48875;SDS011;34689;51.644;5.618;2022-11-27T07:20:33;3.58;;;1.65;;
48875;SDS011;34689;51.644;5.618;2022-11-27T07:22:58;3.03;;;1.58;;
48875;SDS011;34689;51.644;5.618;2022-11-27T07:25:24;3.20;;;1.83;;
48875;SDS011;34689;51.644;5.618;2022-11-27T07:27:50;9.95;;;2.80;;
48875;SDS011;34689;51.644;5.618;2022-11-27T07:30:15;3.85;;;1.63;;
48875;SDS011;34689;51.644;5.618;2022-11-27T07:32:41;3.33;;;2.00;;
48875;SDS011;34689;51.644;5.618;2022-11-27T07:35:07;3.38;;;1.45;;
48875;SDS011;34689;51.644;5.618;2022-11-27T07:37:33;9.07;;;2.25;;
48875;SDS011;34689;51.644;5.618;2022-11-27T07:39:58;6.10;;;2.20;;
48875;SDS011;34689;51.644;5.618;2022-11-27T07:42:24;5.25;;;1.92;;
48875;SDS011;34689;51.644;5.618;2022-11-27T07:44:51;3.33;;;1.73;;
48875;SDS011;34689;51.644;5.618;2022-11-27T07:47:17;8.40;;;2.10;;
48875;SDS011;34689;51.644;5.618;2022-11-27T07:49:43;4.38;;;2.20;;
48875;SDS011;34689;51.644;5.618;2022-11-27T07:52:08;5.90;;;2.50;;
48875;SDS011;34689;51.644;5.618;2022-11-27T07:54:34;4.22;;;2.45;;
48875;SDS011;34689;51.644;5.618;2022-11-27T07:57:00;13.23;;;4.13;;
48875;SDS011;34689;51.644;5.618;2022-11-27T07:59:26;5.93;;;2.42;;
48875;SDS011;34689;51.644;5.618;2022-11-27T08:01:52;7.07;;;3.45;;
48875;SDS011;34689;51.644;5.618;2022-11-27T08:04:18;7.95;;;2.92;;
48875;SDS011;34689;51.644;5.618;2022-11-27T08:06:44;5.75;;;3.35;;
48875;SDS011;34689;51.644;5.618;2022-11-27T08:09:12;4.47;;;2.50;;
48875;SDS011;34689;51.644;5.618;2022-11-27T08:11:38;7.45;;;3.83;;
48875;SDS011;34689;51.644;5.618;2022-11-27T08:14:04;7.88;;;4.07;;
48875;SDS011;34689;51.644;5.618;2022-11-27T08:16:31;7.45;;;3.60;;
48875;SDS011;34689;51.644;5.618;2022-11-27T08:19:01;5.80;;;2.15;;
48875;SDS011;34689;51.644;5.618;2022-11-27T08:21:28;4.93;;;3.22;;
48875;SDS011;34689;51.644;5.618;2022-11-27T08:23:54;6.95;;;2.80;;
48875;SDS011;34689;51.644;5.618;2022-11-27T08:26:21;5.90;;;2.80;;
48875;SDS011;34689;51.644;5.618;2022-11-27T08:28:47;6.85;;;3.28;;
48875;SDS011;34689;51.644;5.618;2022-11-27T08:31:13;8.18;;;2.85;;
48875;SDS011;34689;51.644;5.618;2022-11-27T08:33:39;6.75;;;3.47;;
48875;SDS011;34689;51.644;5.618;2022-11-27T08:36:05;6.68;;;3.17;;
48875;SDS011;34689;51.644;5.618;2022-11-27T08:38:31;8.02;;;2.67;;
48875;SDS011;34689;51.644;5.618;2022-11-27T08:40:58;6.90;;;2.75;;
48875;SDS011;34689;51.644;5.618;2022-11-27T08:43:26;5.00;;;2.53;;
48875;SDS011;34689;51.644;5.618;2022-11-27T08:45:52;4.30;;;2.80;;
48875;SDS011;34689;51.644;5.618;2022-11-27T08:48:19;3.97;;;1.88;;
48875;SDS011;34689;51.644;5.618;2022-11-27T08:50:46;8.55;;;2.50;;
48875;SDS011;34689;51.644;5.618;2022-11-27T08:53:12;6.78;;;2.70;;
48875;SDS011;34689;51.644;5.618;2022-11-27T08:55:38;4.15;;;2.13;;
48875;SDS011;34689;51.644;5.618;2022-11-27T08:58:04;6.47;;;2.42;;
48875;SDS011;34689;51.644;5.618;2022-11-27T09:00:30;3.45;;;2.22;;
48875;SDS011;34689;51.644;5.618;2022-11-27T09:02:58;6.65;;;3.30;;
48875;SDS011;34689;51.644;5.618;2022-11-27T09:05:24;8.32;;;2.97;;
48875;SDS011;34689;51.644;5.618;2022-11-27T09:07:50;7.63;;;2.75;;
48875;SDS011;34689;51.644;5.618;2022-11-27T09:10:16;4.28;;;2.08;;
48875;SDS011;34689;51.644;5.618;2022-11-27T09:12:42;3.92;;;2.40;;
48875;SDS011;34689;51.644;5.618;2022-11-27T09:15:11;7.25;;;2.10;;
48875;SDS011;34689;51.644;5.618;2022-11-27T09:17:37;6.93;;;3.78;;
48875;SDS011;34689;51.644;5.618;2022-11-27T09:20:03;5.18;;;2.30;;
48875;SDS011;34689;51.644;5.618;2022-11-27T09:22:30;4.75;;;2.28;;
48875;SDS011;34689;51.644;5.618;2022-11-27T09:24:58;5.00;;;2.30;;
48875;SDS011;34689;51.644;5.618;2022-11-27T09:27:23;3.75;;;1.85;;
48875;SDS011;34689;51.644;5.618;2022-11-27T09:29:49;2.55;;;1.50;;
48875;SDS011;34689;51.644;5.618;2022-11-27T09:32:15;2.70;;;1.52;;
48875;SDS011;34689;51.644;5.618;2022-11-27T09:34:41;10.10;;;2.88;;
48875;SDS011;34689;51.644;5.618;2022-11-27T09:37:06;4.65;;;2.38;;
48875;SDS011;34689;51.644;5.618;2022-11-27T09:39:33;4.50;;;1.55;;
48875;SDS011;34689;51.644;5.618;2022-11-27T09:42:03;6.28;;;2.22;;
48875;SDS011;34689;51.644;5.618;2022-11-27T09:49:53;3.28;;;1.98;;
48875;SDS011;34689;51.644;5.618;2022-11-27T09:52:33;5.03;;;2.70;;
48875;SDS011;34689;51.644;5.618;2022-11-27T09:55:15;4.45;;;2.45;;
48875;SDS011;34689;51.644;5.618;2022-11-27T09:57:51;7.00;;;2.67;;
48875;SDS011;34689;51.644;5.618;2022-11-27T10:00:22;3.97;;;2.30;;
48875;SDS011;34689;51.644;5.618;2022-11-27T10:02:48;4.72;;;2.47;;
48875;SDS011;34689;51.644;5.618;2022-11-27T10:05:19;5.82;;;2.40;;
48875;SDS011;34689;51.644;5.618;2022-11-27T10:08:11;7.07;;;2.63;;
48875;SDS011;34689;51.644;5.618;2022-11-27T10:11:02;4.13;;;2.03;;
48875;SDS011;34689;51.644;5.618;2022-11-27T10:19:04;5.30;;;2.38;;
48875;SDS011;34689;51.644;5.618;2022-11-27T10:21:58;3.30;;;1.98;;
48875;SDS011;34689;51.644;5.618;2022-11-27T10:25:02;5.82;;;2.42;;
48875;SDS011;34689;51.644;5.618;2022-11-27T10:30:54;4.18;;;2.50;;
48875;SDS011;34689;51.644;5.618;2022-11-27T10:38:59;6.60;;;2.50;;
48875;SDS011;34689;51.644;5.618;2022-11-27T10:41:31;6.32;;;3.13;;
48875;SDS011;34689;51.644;5.618;2022-11-27T10:44:03;7.88;;;3.13;;
48875;SDS011;34689;51.644;5.618;2022-11-27T10:47:03;3.83;;;2.13;;
48875;SDS011;34689;51.644;5.618;2022-11-27T10:49:31;3.58;;;2.20;;
48875;SDS011;34689;51.644;5.618;2022-11-27T10:52:01;4.30;;;2.30;;
48875;SDS011;34689;51.644;5.618;2022-11-27T10:54:29;2.00;;;1.30;;
48875;SDS011;34689;51.644;5.618;2022-11-27T10:57:10;6.68;;;2.83;;
48875;SDS011;34689;51.644;5.618;2022-11-27T10:59:42;4.28;;;2.13;;
48875;SDS011;34689;51.644;5.618;2022-11-27T11:02:32;3.63;;;2.28;;
48875;SDS011;34689;51.644;5.618;2022-11-27T11:05:09;7.40;;;3.05;;
48875;SDS011;34689;51.644;5.618;2022-11-27T11:07:56;6.03;;;2.53;;
48875;SDS011;34689;51.644;5.618;2022-11-27T11:11:04;4.63;;;1.95;;
48875;SDS011;34689;51.644;5.618;2022-11-27T11:13:24;6.78;;;2.45;;
48875;SDS011;34689;51.644;5.618;2022-11-27T11:18:45;4.88;;;2.30;;
48875;SDS011;34689;51.644;5.618;2022-11-27T11:21:18;4.35;;;2.47;;
48875;SDS011;34689;51.644;5.618;2022-11-27T11:23:51;6.30;;;3.85;;
48875;SDS011;34689;51.644;5.618;2022-11-27T11:26:30;3.75;;;2.75;;
48875;SDS011;34689;51.644;5.618;2022-11-27T11:28:57;5.10;;;2.47;;
48875;SDS011;34689;51.644;5.618;2022-11-27T11:32:02;3.35;;;2.30;;
48875;SDS011;34689;51.644;5.618;2022-11-27T11:34:22;7.45;;;2.50;;
48875;SDS011;34689;51.644;5.618;2022-11-27T11:39:54;8.75;;;2.92;;
48875;SDS011;34689;51.644;5.618;2022-11-27T11:42:31;5.00;;;2.67;;
48875;SDS011;34689;51.644;5.618;2022-11-27T11:47:27;7.30;;;3.03;;
48875;SDS011;34689;51.644;5.618;2022-11-27T11:49:54;4.13;;;2.55;;
48875;SDS011;34689;51.644;5.618;2022-11-27T12:09:23;5.47;;;2.85;;
48875;SDS011;34689;51.644;5.618;2022-11-27T12:25:45;7.55;;;3.55;;
48875;SDS011;34689;51.644;5.618;2022-11-27T12:36:55;3.63;;;2.00;;
48875;SDS011;34689;51.644;5.618;2022-11-27T12:42:18;3.00;;;1.85;;
48875;SDS011;34689;51.644;5.618;2022-11-27T12:47:33;3.65;;;2.00;;
48875;SDS011;34689;51.644;5.618;2022-11-27T12:50:19;3.85;;;2.15;;
48875;SDS011;34689;51.644;5.618;2022-11-27T12:53:08;4.03;;;2.45;;
48875;SDS011;34689;51.644;5.618;2022-11-27T12:55:43;4.50;;;2.72;;
48875;SDS011;34689;51.644;5.618;2022-11-27T12:58:22;3.88;;;2.35;;
48875;SDS011;34689;51.644;5.618;2022-11-27T13:00:54;6.68;;;3.15;;
48875;SDS011;34689;51.644;5.618;2022-11-27T13:03:29;3.53;;;1.88;;
48875;SDS011;34689;51.644;5.618;2022-11-27T13:06:03;5.55;;;3.00;;
48875;SDS011;34689;51.644;5.618;2022-11-27T13:11:14;6.65;;;3.10;;
48875;SDS011;34689;51.644;5.618;2022-11-27T13:13:48;6.30;;;2.92;;
48875;SDS011;34689;51.644;5.618;2022-11-27T13:16:23;3.15;;;2.05;;
48875;SDS011;34689;51.644;5.618;2022-11-27T13:19:15;4.68;;;2.35;;
48875;SDS011;34689;51.644;5.618;2022-11-27T13:21:46;5.55;;;3.28;;
48875;SDS011;34689;51.644;5.618;2022-11-27T13:24:13;2.97;;;1.90;;
48875;SDS011;34689;51.644;5.618;2022-11-27T13:29:19;3.70;;;2.33;;
48875;SDS011;34689;51.644;5.618;2022-11-27T13:31:55;5.00;;;2.67;;
48875;SDS011;34689;51.644;5.618;2022-11-27T13:34:23;3.05;;;2.22;;
48875;SDS011;34689;51.644;5.618;2022-11-27T13:36:58;3.33;;;1.85;;
48875;SDS011;34689;51.644;5.618;2022-11-27T13:39:30;3.20;;;2.08;;
48875;SDS011;34689;51.644;5.618;2022-11-27T13:42:15;3.75;;;2.42;;
48875;SDS011;34689;51.644;5.618;2022-11-27T13:44:52;5.80;;;2.65;;
48875;SDS011;34689;51.644;5.618;2022-11-27T13:47:19;6.32;;;2.13;;
48875;SDS011;34689;51.644;5.618;2022-11-27T13:49:57;3.60;;;1.58;;
48875;SDS011;34689;51.644;5.618;2022-11-27T13:52:25;4.93;;;2.13;;
48875;SDS011;34689;51.644;5.618;2022-11-27T13:57:23;2.17;;;1.23;;
48875;SDS011;34689;51.644;5.618;2022-11-27T14:00:00;2.72;;;1.63;;
48875;SDS011;34689;51.644;5.618;2022-11-27T14:02:38;2.10;;;1.20;;
48875;SDS011;34689;51.644;5.618;2022-11-27T14:05:07;5.70;;;2.30;;
48875;SDS011;34689;51.644;5.618;2022-11-27T14:07:35;2.92;;;1.83;;
48875;SDS011;34689;51.644;5.618;2022-11-27T14:10:08;3.63;;;1.80;;
48875;SDS011;34689;51.644;5.618;2022-11-27T14:12:56;3.95;;;2.10;;
48875;SDS011;34689;51.644;5.618;2022-11-27T14:15:34;3.35;;;2.35;;
48875;SDS011;34689;51.644;5.618;2022-11-27T14:18:13;6.20;;;2.55;;
48875;SDS011;34689;51.644;5.618;2022-11-27T14:20:46;6.13;;;2.17;;
48875;SDS011;34689;51.644;5.618;2022-11-27T14:28:27;5.03;;;2.08;;
48875;SDS011;34689;51.644;5.618;2022-11-27T14:30:58;5.32;;;2.45;;
48875;SDS011;34689;51.644;5.618;2022-11-27T14:33:29;2.55;;;1.48;;
48875;SDS011;34689;51.644;5.618;2022-11-27T14:36:00;2.30;;;1.40;;
48875;SDS011;34689;51.644;5.618;2022-11-27T14:38:29;4.63;;;2.13;;
48875;SDS011;34689;51.644;5.618;2022-11-27T14:41:06;6.22;;;1.80;;
48875;SDS011;34689;51.644;5.618;2022-11-27T14:43:42;3.22;;;1.40;;
48875;SDS011;34689;51.644;5.618;2022-11-27T14:46:18;9.65;;;2.38;;
48875;SDS011;34689;51.644;5.618;2022-11-27T14:48:46;4.75;;;2.30;;
48875;SDS011;34689;51.644;5.618;2022-11-27T14:51:20;3.22;;;1.73;;
48875;SDS011;34689;51.644;5.618;2022-11-27T14:53:51;6.57;;;2.05;;
48875;SDS011;34689;51.644;5.618;2022-11-27T14:56:21;3.53;;;2.35;;
48875;SDS011;34689;51.644;5.618;2022-11-27T14:58:52;4.80;;;2.70;;
48875;SDS011;34689;51.644;5.618;2022-11-27T15:01:20;3.72;;;1.80;;
48875;SDS011;34689;51.644;5.618;2022-11-27T15:03:53;7.22;;;2.72;;
48875;SDS011;34689;51.644;5.618;2022-11-27T15:06:24;4.07;;;2.30;;
48875;SDS011;34689;51.644;5.618;2022-11-27T15:08:59;4.05;;;2.10;;
48875;SDS011;34689;51.644;5.618;2022-11-27T15:11:24;4.15;;;2.38;;
48875;SDS011;34689;51.644;5.618;2022-11-27T15:13:54;5.07;;;1.88;;
48875;SDS011;34689;51.644;5.618;2022-11-27T15:16:24;3.63;;;1.98;;
48875;SDS011;34689;51.644;5.618;2022-11-27T15:18:53;4.78;;;2.40;;
48875;SDS011;34689;51.644;5.618;2022-11-27T15:21:21;4.15;;;2.17;;
48875;SDS011;34689;51.644;5.618;2022-11-27T15:23:52;7.25;;;2.78;;
48875;SDS011;34689;51.644;5.618;2022-11-27T15:28:59;5.57;;;3.33;;
48875;SDS011;34689;51.644;5.618;2022-11-27T15:31:36;3.83;;;2.05;;
48875;SDS011;34689;51.644;5.618;2022-11-27T15:34:18;2.58;;;1.60;;
48875;SDS011;34689;51.644;5.618;2022-11-27T15:36:46;4.05;;;2.05;;
48875;SDS011;34689;51.644;5.618;2022-11-27T15:42:15;5.03;;;2.17;;
48875;SDS011;34689;51.644;5.618;2022-11-27T15:44:43;3.17;;;2.03;;
48875;SDS011;34689;51.644;5.618;2022-11-27T15:49:56;3.05;;;1.77;;
48875;SDS011;34689;51.644;5.618;2022-11-27T15:52:23;3.20;;;1.88;;
48875;SDS011;34689;51.644;5.618;2022-11-27T15:54:49;3.40;;;1.58;;
48875;SDS011;34689;51.644;5.618;2022-11-27T15:57:15;3.80;;;1.92;;
48875;SDS011;34689;51.644;5.618;2022-11-27T15:59:41;2.10;;;1.30;;
48875;SDS011;34689;51.644;5.618;2022-11-27T16:02:07;3.25;;;1.67;;
48875;SDS011;34689;51.644;5.618;2022-11-27T16:04:35;3.00;;;1.67;;
48875;SDS011;34689;51.644;5.618;2022-11-27T16:07:00;3.20;;;1.75;;
48875;SDS011;34689;51.644;5.618;2022-11-27T16:09:26;2.72;;;1.55;;
48875;SDS011;34689;51.644;5.618;2022-11-27T16:11:52;3.42;;;1.80;;
48875;SDS011;34689;51.644;5.618;2022-11-27T16:14:18;2.55;;;1.70;;
48875;SDS011;34689;51.644;5.618;2022-11-27T16:16:44;4.07;;;1.75;;
48875;SDS011;34689;51.644;5.618;2022-11-27T16:19:09;3.42;;;1.35;;
48875;SDS011;34689;51.644;5.618;2022-11-27T16:21:36;4.18;;;1.88;;
48875;SDS011;34689;51.644;5.618;2022-11-27T16:24:05;3.95;;;2.30;;
48875;SDS011;34689;51.644;5.618;2022-11-27T16:26:33;7.28;;;1.75;;
48875;SDS011;34689;51.644;5.618;2022-11-27T16:29:00;2.72;;;1.63;;
48875;SDS011;34689;51.644;5.618;2022-11-27T16:31:26;3.70;;;1.55;;
48875;SDS011;34689;51.644;5.618;2022-11-27T16:33:52;3.45;;;1.65;;
48875;SDS011;34689;51.644;5.618;2022-11-27T16:36:18;4.80;;;1.85;;
48875;SDS011;34689;51.644;5.618;2022-11-27T16:38:45;5.40;;;2.92;;
48875;SDS011;34689;51.644;5.618;2022-11-27T16:41:15;5.30;;;2.00;;
48875;SDS011;34689;51.644;5.618;2022-11-27T16:43:46;6.15;;;2.70;;
48875;SDS011;34689;51.644;5.618;2022-11-27T16:46:18;3.28;;;1.75;;
48875;SDS011;34689;51.644;5.618;2022-11-27T16:48:46;3.88;;;2.00;;
48875;SDS011;34689;51.644;5.618;2022-11-27T16:51:14;3.97;;;1.73;;
48875;SDS011;34689;51.644;5.618;2022-11-27T16:53:46;2.85;;;1.73;;
48875;SDS011;34689;51.644;5.618;2022-11-27T16:56:15;3.22;;;2.15;;
48875;SDS011;34689;51.644;5.618;2022-11-27T16:58:43;2.15;;;1.17;;
48875;SDS011;34689;51.644;5.618;2022-11-27T17:01:11;2.22;;;1.33;;
48875;SDS011;34689;51.644;5.618;2022-11-27T17:03:44;4.28;;;1.42;;
48875;SDS011;34689;51.644;5.618;2022-11-27T17:06:12;2.30;;;1.58;;
48875;SDS011;34689;51.644;5.618;2022-11-27T17:08:41;3.30;;;2.10;;
48875;SDS011;34689;51.644;5.618;2022-11-27T17:11:11;2.88;;;1.67;;
48875;SDS011;34689;51.644;5.618;2022-11-27T17:13:42;3.47;;;1.38;;
48875;SDS011;34689;51.644;5.618;2022-11-27T17:16:08;3.35;;;1.52;;